Alsip, IL

10:51 AM CDT on August 04, 2015 (GMT -0500)
West 135th Street | Change Station
CLOSE
Current Station
Personal Weather Station
Location: Orland Park, IL
Elevation: 633 ft
Nearby Weather Stations

Elev 633 ft 41.65 °N, 87.78 °W | Updated 6 minutes ago

Partly Cloudy
Partly Cloudy
77.7 °F
Feels Like 79 °F
N
-
Wind Variable Wind from North

Today
High -- | Low -- °F
--% Chance of Precip.
Yesterday
High -- | Low -- °F
Precip. -- in
5:48 AM 8:05 PM
Waning Gibbous, 76% visible
Pressure 29.95 in
Visibility 10.0 miles
Clouds Few 20000 ft
Mostly Cloudy 25000 ft
Heat Index 79 °F
Dew Point 60 °F
Humidity 54%
Rainfall -999.00 in
Snow Depth Not available.
UV 3 out of 12
Pollen 7.70 out of 12
Ozone Good
PM2.5 Moderate
Flu Activity Not available.
METAR KMDW 041453Z 28008KT 10SM FEW200 BKN250 26/11 A2998 RMK AO2 SLP141 T02610111 51007

More Conditions Fewer Conditions

Pressure 29.95 in
Visibility 10.0 miles
Clouds Few 20000 ft
Mostly Cloudy 25000 ft
Heat Index 79 °F
Dew Point 60 °F
Humidity 54%
Rainfall -999.00 in
Snow Depth Not available.
UV 3 out of 12
Pollen 7.70 out of 12
Ozone Good
PM2.5 Moderate
Flu Activity Not available.
METAR KMDW 041453Z 28008KT 10SM FEW200 BKN250 26/11 A2998 RMK AO2 SLP141 T02610111 51007

More Conditions Fewer Conditions

10-Day Weather Forecast

Almanac

Astronomy

Aug. 04, 2015 Rise Set
Actual Time 5:48 AM CDT 8:05 PM CDT
Civil Twilight 5:16 AM CDT 8:36 PM CDT
Nautical Twilight 4:38 AM CDT 9:14 PM CDT
Astronomical Twilight 3:56 AM CDT 9:56 PM CDT
Moon 10:43 PM CDT 10:47 AM CDT
Length of Visible Light 15h 19m
Length of Day
14h 17m
Tomorrow will be 2m 12s shorter.
Waning Gibbous, 76% of the Moon is Illuminated
Today
Waning Gibbous
Aug 6
Last Quarter
Aug 14
New
Aug 22
First Quarter
Aug 29
Full

Today's Extremes

State Highs State Lows

Community

WunderPhotos

Upload Photos

1,843,909 photos uploaded!

Nearby

Air Quality

  Air Quality AQ Index Pollutant
Yesterday Moderate
PM2.5
Yesterday Good
OZONE
Current Moderate
PM2.5
Current Good
OZONE
Tuesday Good
PM2.5
Tuesday Good
OZONE
Wednesday Moderate
PM2.5
Wednesday Good
OZONE
Thursday Moderate
PM2.5
Thursday Good
OZONE

Snow Depth

Station Depth Elevation
No new snow has been reported.

Earthquake Activity

City Distance Mag. Time & Date
No recent earthquake activity has been reported nearby.
Minimum magnitude displayed is 2.5.

Coastal Water Temperatures

Place Temperature
No Stations Reporting

Nearby Weather Stations